Time;durP1;ratioP1;P1;durP2;ratioP2;P2;SDS_P1;SDS_P2;PMS_P1;PMS_P2;Temp;Humidity;BMP_temperature;BMP_pressure;BME280_temperature;BME280_humidity;BME280_pressure;Samples;Min_cycle;Max_cycle;Signal;HPM_P1;HPM_P2
2023/08/11 00:01:33;;;;;;;2.72;2.25;;;;;;;16.24;100.00;98203.16;18239073;32;20089;-58
2023/08/11 00:11:35;;;;;;;2.50;2.10;;;;;;;16.10;100.00;98204.97;18238698;32;20478;-57
2023/08/11 00:21:38;;;;;;;4.05;2.75;;;;;;;16.01;100.00;98204.81;18238248;32;20051;-58
2023/08/11 00:31:41;;;;;;;2.78;2.05;;;;;;;15.98;100.00;98210.87;18237532;32;20074;-58
2023/08/11 00:41:44;;;;;;;3.70;2.50;;;;;;;15.91;100.00;98213.94;18237160;32;20059;-58
2023/08/11 00:51:46;;;;;;;3.40;2.12;;;;;;;15.89;100.00;98207.16;18237118;32;20098;-58
2023/08/11 01:01:49;;;;;;;3.30;2.35;;;;;;;15.86;100.00;98215.94;18236694;32;20062;-58
2023/08/11 01:11:57;;;;;;;3.15;2.55;;;;;;;15.82;100.00;98202.06;18236161;32;20396;-57
2023/08/11 01:22:03;;;;;;;2.80;1.85;;;;;;;15.78;100.00;98213.81;18235558;32;20070;-58
2023/08/11 01:32:06;;;;;;;3.03;2.40;;;;;;;15.73;100.00;98211.94;18235802;32;20047;-58
2023/08/11 01:42:08;;;;;;;3.40;2.30;;;;;;;15.64;100.00;98213.72;18233444;32;20063;-58
2023/08/11 01:52:11;;;;;;;2.55;1.90;;;;;;;15.57;100.00;98219.50;18234376;32;20556;-58
2023/08/11 02:02:14;;;;;;;2.60;2.00;;;;;;;15.46;100.00;98232.41;18233074;32;20069;-58
2023/08/11 02:12:17;;;;;;;2.42;2.08;;;;;;;15.34;100.00;98227.34;18232797;32;20066;-58
2023/08/11 02:22:19;;;;;;;3.17;2.28;;;;;;;15.18;100.00;98236.75;18232991;32;20498;-58
2023/08/11 02:32:22;;;;;;;2.78;2.30;;;;;;;15.05;100.00;98235.53;18231291;32;20437;-58
2023/08/11 02:42:25;;;;;;;4.90;2.28;;;;;;;14.99;100.00;98223.88;18231827;32;20058;-58
2023/08/11 02:52:27;;;;;;;2.60;2.00;;;;;;;14.88;100.00;98217.69;18231541;32;20501;-58
2023/08/11 03:02:30;;;;;;;3.28;2.15;;;;;;;14.81;100.00;98213.66;18231219;32;20169;-58
2023/08/11 03:12:33;;;;;;;3.47;2.28;;;;;;;14.73;100.00;98209.63;18229770;32;20062;-58
2023/08/11 03:22:35;;;;;;;3.55;2.45;;;;;;;14.65;100.00;98211.06;18234338;32;20077;-58
2023/08/11 03:32:39;;;;;;;3.58;2.20;;;;;;;14.62;100.00;98202.59;18240398;32;20054;-57
2023/08/11 03:42:43;;;;;;;3.83;2.20;;;;;;;14.50;100.00;98209.22;18239682;32;20097;-58
2023/08/11 03:52:47;;;;;;;3.57;2.43;;;;;;;14.45;100.00;98222.06;18238847;32;20047;-58
2023/08/11 04:02:50;;;;;;;3.40;2.22;;;;;;;14.37;100.00;98218.00;18238919;32;20085;-57
2023/08/11 04:12:53;;;;;;;2.42;2.22;;;;;;;14.31;100.00;98216.44;18237448;32;20090;-58
2023/08/11 04:22:56;;;;;;;3.45;2.50;;;;;;;14.25;100.00;98223.78;18238179;32;20067;-58
2023/08/11 04:32:59;;;;;;;3.65;2.33;;;;;;;14.15;100.00;98224.66;18236215;32;20070;-58
2023/08/11 04:43:04;;;;;;;;;;;;;;;14.07;100.00;98233.37;18240256;32;20080;-58
2023/08/11 04:53:06;;;;;;;3.60;2.35;;;;;;;14.07;100.00;98231.50;18237174;32;19949;-58
2023/08/11 05:03:09;;;;;;;2.58;2.20;;;;;;;14.09;100.00;98239.38;18236297;32;20110;-58
2023/08/11 05:13:12;;;;;;;3.67;2.37;;;;;;;14.18;100.00;98235.00;18236042;32;20058;-58
2023/08/11 05:23:15;;;;;;;2.50;1.98;;;;;;;14.37;100.00;98247.94;18234658;32;20097;-57
2023/08/11 05:33:18;;;;;;;2.87;2.37;;;;;;;14.56;100.00;98259.78;18234278;32;20392;-58
2023/08/11 05:43:21;;;;;;;3.35;2.30;;;;;;;14.80;100.00;98256.41;18233861;32;20439;-58
2023/08/11 05:53:24;;;;;;;4.45;2.67;;;;;;;15.08;100.00;98267.62;18233985;32;20442;-58
2023/08/11 06:03:30;;;;;;;2.72;2.45;;;;;;;15.41;100.00;98259.72;18233074;32;20058;-58
2023/08/11 06:13:32;;;;;;;2.97;2.33;;;;;;;15.72;100.00;98276.56;18233563;32;20481;-58
2023/08/11 06:23:35;;;;;;;2.62;1.73;;;;;;;16.06;100.00;98270.22;18232035;32;20480;-58
2023/08/11 06:33:39;;;;;;;2.53;1.87;;;;;;;16.48;100.00;98264.25;18232488;32;20058;-58
2023/08/11 06:43:42;;;;;;;2.20;1.73;;;;;;;16.93;100.00;98276.44;18230423;32;20407;-58
2023/08/11 06:53:48;;;;;;;2.72;1.92;;;;;;;17.39;100.00;98279.53;18233114;32;20066;-58
2023/08/11 07:03:51;;;;;;;2.60;1.80;;;;;;;17.98;100.00;98287.25;18240891;32;20069;-58
2023/08/11 07:13:54;;;;;;;3.17;2.12;;;;;;;18.42;100.00;98291.28;18240283;32;20070;-58
2023/08/11 07:23:59;;;;;;;3.40;1.80;;;;;;;18.85;100.00;98288.13;18239715;32;20135;-58
2023/08/11 07:34:03;;;;;;;2.78;2.20;;;;;;;19.29;100.00;98286.56;18240370;32;20356;-58
2023/08/11 07:44:06;;;;;;;3.15;2.35;;;;;;;19.78;100.00;98294.09;18238466;32;20106;-58
2023/08/11 07:54:09;;;;;;;3.30;2.30;;;;;;;20.23;100.00;98293.97;18239779;32;20070;-58
2023/08/11 08:04:13;;;;;;;4.00;2.80;;;;;;;20.82;100.00;98290.06;18237142;32;20076;-58
2023/08/11 08:14:19;;;;;;;3.05;2.15;;;;;;;21.35;100.00;98307.38;18238814;32;20434;-58
2023/08/11 08:24:23;;;;;;;3.20;2.08;;;;;;;21.80;100.00;98308.91;18236852;32;20046;-57
2023/08/11 08:34:27;;;;;;;2.28;1.90;;;;;;;22.35;100.00;98307.22;18236999;32;20091;-58
2023/08/11 08:44:31;;;;;;;3.37;2.10;;;;;;;22.87;100.00;98308.84;18236271;32;20084;-58
2023/08/11 08:54:35;;;;;;;3.35;2.25;;;;;;;23.34;100.00;98305.88;18235728;32;20058;-58
2023/08/11 09:04:40;;;;;;;3.83;2.92;;;;;;;23.89;100.00;98305.84;18223027;32;20069;-58
2023/08/11 09:14:44;;;;;;;3.10;2.37;;;;;;;24.32;100.00;98315.53;18235729;32;20059;-58
2023/08/11 09:24:48;;;;;;;2.85;2.30;;;;;;;24.74;100.00;98313.69;18235469;32;20396;-58
2023/08/11 09:34:51;;;;;;;2.40;2.20;;;;;;;25.09;100.00;98308.41;18234528;32;20046;-58
2023/08/11 09:44:55;;;;;;;3.37;2.40;;;;;;;25.51;100.00;98291.41;18234446;32;20066;-58
2023/08/11 09:55:03;;;;;;;3.17;2.42;;;;;;;25.95;96.76;98296.09;18234027;32;20054;-58
2023/08/11 10:05:08;;;;;;;6.18;2.35;;;;;;;26.31;89.91;98298.97;18233859;32;20057;-58
2023/08/11 10:15:16;;;;;;;2.50;2.30;;;;;;;26.55;77.84;98300.72;18232459;32;20067;-58
2023/08/11 10:25:22;;;;;;;2.92;2.08;;;;;;;26.80;86.37;98287.44;18232054;32;20064;-58
2023/08/11 10:35:34;;;;;;;3.30;2.40;;;;;;;27.12;76.02;98292.06;18218494;32;20103;-58
2023/08/11 10:45:39;;;;;;;6.03;2.45;;;;;;;27.49;81.91;98299.94;18230882;32;20058;-58
2023/08/11 10:56:05;;;;;;;4.32;2.30;;;;;;;27.72;75.43;98284.13;18230386;32;20449;-58
2023/08/11 11:06:11;;;;;;;3.05;2.35;;;;;;;28.01;75.68;98281.88;18231173;32;20067;-58
2023/08/11 11:16:15;;;;;;;3.75;2.42;;;;;;;28.30;70.73;98285.09;18230617;32;20110;-58
2023/08/11 11:26:24;;;;;;;3.08;2.30;;;;;;;28.51;67.43;98286.59;18229028;32;20446;-58
2023/08/11 11:36:31;;;;;;;3.12;2.25;;;;;;;28.78;68.33;98276.28;18229664;32;20043;-58
2023/08/11 11:46:35;;;;;;;3.10;2.33;;;;;;;29.10;59.79;98270.31;18238218;32;20084;-58
2023/08/11 11:56:38;;;;;;;3.42;3.00;;;;;;;29.47;64.41;98274.34;18239084;32;20085;-58
2023/08/11 12:06:56;;;;;;;2.28;2.05;;;;;;;29.74;64.89;98267.44;18238228;32;20054;-58
2023/08/11 12:16:59;;;;;;;3.40;2.50;;;;;;;30.11;61.22;98267.75;18238797;32;20344;-58
2023/08/11 12:27:03;;;;;;;2.72;2.17;;;;;;;30.52;60.42;98273.25;18236916;32;20141;-58
2023/08/11 12:37:08;;;;;;;2.12;1.92;;;;;;;30.84;57.38;98269.84;18237431;32;20097;-58
2023/08/11 12:47:16;;;;;;;3.92;2.08;;;;;;;31.38;53.76;98259.72;18237495;32;20046;-58
2023/08/11 12:57:20;;;;;;;1.87;1.67;;;;;;;31.60;49.86;98259.75;18236752;32;20051;-58
2023/08/11 13:07:26;;;;;;;3.08;1.85;;;;;;;32.11;52.61;98255.00;18236521;32;20074;-58
2023/08/11 13:17:34;;;;;;;2.20;1.47;;;;;;;32.56;44.20;98248.94;18235154;32;20122;-58
2023/08/11 13:27:38;;;;;;;2.47;1.60;;;;;;;32.49;42.13;98252.56;18233677;32;20107;-58
2023/08/11 13:37:42;;;;;;;2.15;1.95;;;;;;;32.76;41.06;98250.13;18234024;32;20091;-58
2023/08/11 13:47:46;;;;;;;2.22;1.85;;;;;;;33.32;43.86;98248.72;18234842;32;20054;-58
2023/08/11 13:57:49;;;;;;;2.78;1.80;;;;;;;33.86;45.30;98240.72;18234183;32;20069;-58
2023/08/11 14:07:53;;;;;;;1.87;1.67;;;;;;;34.34;40.61;98239.13;18233413;32;20124;-59
2023/08/11 14:17:57;;;;;;;2.05;1.80;;;;;;;34.51;38.89;98234.53;18232958;32;20054;-58
2023/08/11 14:28:02;;;;;;;4.32;1.73;;;;;;;34.74;42.87;98216.22;18232867;32;20125;-58
2023/08/11 14:38:09;;;;;;;1.58;1.30;;;;;;;35.39;40.95;98213.38;18232178;32;20355;-58
2023/08/11 14:48:19;;;;;;;1.95;1.42;;;;;;;35.73;34.83;98204.03;18232082;32;20067;-58
2023/08/11 14:58:30;;;;;;;1.48;1.37;;;;;;;35.93;38.56;98206.12;18231616;32;20096;-58
2023/08/11 15:08:34;;;;;;;1.73;1.40;;;;;;;35.25;35.54;98191.09;18229880;32;20054;-58
2023/08/11 15:18:40;;;;;;;1.80;1.42;;;;;;;34.08;35.98;98176.00;18237382;32;20050;-58
2023/08/11 15:28:44;;;;;;;1.90;1.70;;;;;;;33.18;39.13;98159.88;18241176;32;20084;-58
2023/08/11 15:38:49;;;;;;;2.58;1.75;;;;;;;32.32;40.36;98153.47;18238985;32;20054;-58
2023/08/11 15:48:53;;;;;;;2.00;1.80;;;;;;;31.79;42.92;98127.16;18239902;32;20480;-58
2023/08/11 15:58:57;;;;;;;2.12;1.67;;;;;;;31.93;43.83;98129.12;18239762;32;20115;-58
2023/08/11 16:09:03;;;;;;;20.88;15.32;;;;;;;31.04;47.64;98120.34;18239027;32;20362;-58
2023/08/11 16:19:11;;;;;;;5.95;4.18;;;;;;;30.45;45.07;98117.78;18237392;32;20110;-58
2023/08/11 16:29:16;;;;;;;9.38;5.43;;;;;;;30.13;46.74;98120.38;18237506;32;20122;-58
2023/08/11 16:39:20;;;;;;;3.80;2.40;;;;;;;30.10;47.51;98118.37;18237450;32;20088;-58
2023/08/11 16:49:23;;;;;;;6.57;4.15;;;;;;;30.07;45.46;98112.38;18237228;32;20081;-57
2023/08/11 16:59:28;;;;;;;11.35;5.85;;;;;;;29.65;46.91;98108.09;18235643;32;20077;-57
2023/08/11 17:09:30;;;;;;;4.47;3.50;;;;;;;29.16;49.89;98100.91;18235384;32;20072;-58
2023/08/11 17:19:34;;;;;;;3.28;2.20;;;;;;;28.65;53.67;98091.25;18234858;32;20363;-58
2023/08/11 17:29:37;;;;;;;3.35;1.87;;;;;;;28.22;54.71;98085.97;18235553;32;20062;-58
2023/08/11 17:39:40;;;;;;;2.87;1.55;;;;;;;27.73;61.99;98082.09;18234002;32;20058;-57
2023/08/11 17:49:43;;;;;;;3.45;1.40;;;;;;;27.24;68.72;98086.47;18235115;32;20050;-57
2023/08/11 17:59:47;;;;;;;1.90;1.40;;;;;;;26.73;75.85;98086.75;18233983;32;20073;-57
2023/08/11 18:09:53;;;;;;;1.65;1.30;;;;;;;26.22;82.08;98074.66;18232746;32;20071;-57
2023/08/11 18:19:59;;;;;;;2.85;1.20;;;;;;;25.69;86.39;98077.81;18233919;32;20055;-57
2023/08/11 18:30:02;;;;;;;2.40;1.30;;;;;;;25.20;89.57;98076.22;18231589;32;20058;-57
2023/08/11 18:40:08;;;;;;;1.50;1.05;;;;;;;24.76;97.35;98073.53;18236090;32;20061;-57
2023/08/11 18:50:14;;;;;;;1.70;1.50;;;;;;;24.31;100.00;98079.03;18231602;32;20114;-57
2023/08/11 19:00:20;;;;;;;3.03;1.92;;;;;;;23.90;100.00;98083.75;18230161;32;20050;-57
2023/08/11 19:10:23;;;;;;;4.03;2.10;;;;;;;23.51;100.00;98088.81;18231119;32;20097;-57
2023/08/11 19:20:26;;;;;;;3.58;2.40;;;;;;;23.12;100.00;98102.13;18230663;32;20059;-57
2023/08/11 19:30:31;;;;;;;3.42;2.30;;;;;;;22.76;100.00;98092.59;18230277;32;20371;-57
2023/08/11 19:40:37;;;;;;;5.55;4.80;;;;;;;22.44;100.00;98086.78;18229537;32;20047;-57
2023/08/11 19:50:44;;;;;;;5.80;3.87;;;;;;;22.13;100.00;98093.47;18228150;32;20089;-57
2023/08/11 20:00:48;;;;;;;3.53;2.78;;;;;;;21.87;100.00;98094.50;18230444;32;20038;-57
2023/08/11 20:10:53;;;;;;;3.17;2.62;;;;;;;21.61;100.00;98103.72;18237375;32;20059;-57
2023/08/11 20:20:59;;;;;;;3.37;2.35;;;;;;;21.38;100.00;98097.66;18238702;32;20050;-57
2023/08/11 20:31:02;;;;;;;4.97;2.90;;;;;;;21.16;100.00;98098.72;18238340;32;20067;-57
2023/08/11 20:41:05;;;;;;;;;;;;;;;20.97;100.00;98094.41;18223648;32;20125;-57
2023/08/11 20:51:10;;;;;;;4.65;3.40;;;;;;;20.76;100.00;98094.31;18237604;32;19964;-57
2023/08/11 21:01:13;;;;;;;4.55;3.70;;;;;;;20.60;100.00;98096.72;18236926;32;20050;-57
2023/08/11 21:11:17;;;;;;;4.07;2.70;;;;;;;20.45;100.00;98089.81;18235302;32;20438;-57
2023/08/11 21:21:20;;;;;;;2.72;2.05;;;;;;;20.34;100.00;98095.94;18236186;32;20107;-57
2023/08/11 21:31:23;;;;;;;3.28;2.12;;;;;;;20.22;100.00;98094.66;18235647;32;20147;-57
2023/08/11 21:41:27;;;;;;;2.97;2.40;;;;;;;20.12;100.00;98086.75;18233885;32;20050;-57
2023/08/11 21:51:29;;;;;;;2.75;2.03;;;;;;;20.03;100.00;98088.69;18234867;32;20092;-57
2023/08/11 22:01:32;;;;;;;2.45;2.03;;;;;;;19.94;100.00;98094.19;18234447;32;20073;-57
2023/08/11 22:11:36;;;;;;;;;;;;;;;19.81;100.00;98093.19;18234182;32;20051;-57
2023/08/11 22:21:40;;;;;;;2.40;1.80;;;;;;;19.69;100.00;98099.25;18233583;32;19960;-57
2023/08/11 22:31:44;;;;;;;3.65;1.75;;;;;;;19.58;100.00;98092.47;18232220;32;20110;-57
2023/08/11 22:41:47;;;;;;;;;;;;;;;19.48;100.00;98079.84;18232227;32;20042;-57
2023/08/11 22:51:51;;;;;;;4.20;2.12;;;;;;;19.39;100.00;98082.59;18232235;32;19978;-57
2023/08/11 23:01:54;;;;;;;3.47;2.30;;;;;;;19.35;100.00;98089.81;18230880;32;20419;-57
2023/08/11 23:11:59;;;;;;;2.80;1.90;;;;;;;19.34;100.00;98079.97;18231545;32;20103;-57
2023/08/11 23:22:02;;;;;;;2.25;1.83;;;;;;;19.30;100.00;98079.78;18230497;32;20366;-57
2023/08/11 23:32:05;;;;;;;3.55;2.70;;;;;;;19.33;100.00;98066.59;18229264;32;20065;-57
2023/08/11 23:42:08;;;;;;;4.00;3.13;;;;;;;19.32;100.00;98070.44;18238155;32;20051;-57
2023/08/11 23:52:11;;;;;;;2.83;2.10;;;;;;;19.30;100.00;98059.81;18240053;32;20059;-57
